Time;durP1;ratioP1;P1;durP2;ratioP2;P2;SDS_P1;SDS_P2;PMS_P1;PMS_P2;Temp;Humidity;BMP_temperature;BMP_pressure;BME280_temperature;BME280_humidity;BME280_pressure;Samples;Min_cycle;Max_cycle;Signal;HPM_P1;HPM_P2
2022/09/27 00:00:44;;;;;;;16.47;8.73;;;;;;;38.90;33.33;101168.50;5054590;28;20421;-73
2022/09/27 00:03:11;;;;;;;12.57;7.77;;;;;;;38.79;33.23;101167.09;5054590;28;20453;-73
2022/09/27 00:05:38;;;;;;;15.20;10.63;;;;;;;38.86;33.20;101164.00;5054426;28;20852;-73
2022/09/27 00:08:04;;;;;;;11.07;8.43;;;;;;;38.69;33.16;101156.47;5054454;28;20950;-75
2022/09/27 00:10:30;;;;;;;13.50;8.10;;;;;;;38.75;33.05;101144.44;5072601;28;20430;-74
2022/09/27 00:12:57;;;;;;;21.63;7.87;;;;;;;38.70;32.74;101150.75;5054492;28;20818;-74
2022/09/27 00:15:23;;;;;;;13.77;7.07;;;;;;;38.28;33.83;101148.38;5054435;28;20425;-72
2022/09/27 00:17:52;;;;;;;12.80;8.43;;;;;;;38.56;33.40;101143.75;5054265;28;20457;-73
2022/09/27 00:20:20;;;;;;;15.60;8.70;;;;;;;38.48;33.50;101137.13;5054511;28;21008;-73
2022/09/27 00:22:47;;;;;;;13.40;7.70;;;;;;;38.42;33.63;101128.28;5054255;28;20590;-73
2022/09/27 00:25:15;;;;;;;18.40;10.17;;;;;;;38.63;33.28;101115.13;5054228;28;20453;-73
2022/09/27 00:27:41;;;;;;;12.87;8.07;;;;;;;38.11;34.06;101105.59;5072567;28;20406;-73
2022/09/27 00:30:09;;;;;;;10.90;6.20;;;;;;;38.34;33.64;101092.97;5054341;28;20829;-74
2022/09/27 00:32:35;;;;;;;12.83;8.53;;;;;;;38.31;33.38;101093.59;5072457;28;20441;-74
2022/09/27 00:35:01;;;;;;;12.90;7.73;;;;;;;38.39;33.39;101090.16;5056152;28;20425;-74
2022/09/27 00:37:27;;;;;;;15.10;7.80;;;;;;;38.52;33.59;101091.25;5058172;28;21048;-74
2022/09/27 00:39:53;;;;;;;13.93;7.10;;;;;;;38.70;33.12;101074.81;5076507;28;20401;-74
2022/09/27 00:42:19;;;;;;;15.80;8.20;;;;;;;38.72;32.99;101071.81;5058113;28;20421;-74
2022/09/27 00:44:58;;;;;;;12.73;7.67;;;;;;;38.86;32.95;101066.38;5058330;28;20420;-74
2022/09/27 00:47:53;;;;;;;14.97;8.67;;;;;;;38.90;32.65;101056.50;5058176;28;20413;-74
2022/09/27 00:50:41;;;;;;;10.33;7.47;;;;;;;38.89;32.94;101054.91;5058029;28;20440;-75
2022/09/27 00:53:23;;;;;;;12.67;6.40;;;;;;;38.86;32.97;101055.53;5057943;28;20414;-74
2022/09/27 00:56:05;;;;;;;13.07;8.37;;;;;;;38.83;32.88;101048.78;5057884;28;20461;-74
2022/09/27 00:58:39;;;;;;;11.97;6.57;;;;;;;38.82;32.76;101058.03;5057745;28;20421;-74
2022/09/27 01:01:09;;;;;;;14.67;6.37;;;;;;;38.78;32.85;101057.03;5057897;28;20422;-74
2022/09/27 01:04:02;;;;;;;11.20;7.30;;;;;;;38.79;32.99;101049.72;5057807;28;20441;-74
2022/09/27 01:06:29;;;;;;;13.03;7.67;;;;;;;38.69;33.17;101054.25;5057667;28;20788;-74
2022/09/27 01:08:55;;;;;;;11.83;6.60;;;;;;;38.53;33.26;101054.88;5076084;28;20487;-74
2022/09/27 01:11:50;;;;;;;18.47;8.53;;;;;;;38.14;33.82;101051.63;5058540;28;20425;-74
2022/09/27 01:14:36;;;;;;;11.67;6.03;;;;;;;38.46;33.39;101049.91;5057699;28;20426;-73
2022/09/27 01:17:24;;;;;;;11.00;6.77;;;;;;;37.73;34.40;101040.78;5057341;28;20453;-75
2022/09/27 01:20:14;;;;;;;14.63;7.13;;;;;;;37.69;34.74;101036.25;5075729;28;20398;-74
2022/09/27 01:22:44;;;;;;;11.07;7.00;;;;;;;36.44;36.72;101035.03;5075157;28;20606;-74
2022/09/27 01:25:55;;;;;;;11.30;6.50;;;;;;;37.61;35.02;101043.97;5075824;28;20432;-74
2022/09/27 01:28:32;;;;;;;15.40;8.03;;;;;;;37.95;34.33;101042.03;5075457;28;20811;-75
2022/09/27 01:31:11;;;;;;;11.63;6.07;;;;;;;38.03;34.23;101034.00;5057187;28;20871;-74
2022/09/27 01:33:43;;;;;;;11.33;5.70;;;;;;;38.38;33.64;101045.22;5075521;28;20398;-74
2022/09/27 01:36:27;;;;;;;14.70;5.70;;;;;;;37.54;34.53;101037.38;5057162;28;20496;-74
2022/09/27 01:39:06;;;;;;;13.97;6.13;;;;;;;38.15;34.00;101026.16;5057143;28;20475;-74
2022/09/27 01:41:51;;;;;;;19.60;6.40;;;;;;;38.29;33.88;101030.75;5075417;28;20406;-74
2022/09/27 01:44:32;;;;;;;11.33;6.60;;;;;;;38.44;33.62;101023.09;5075234;28;20395;-74
2022/09/27 01:47:04;;;;;;;9.63;5.67;;;;;;;38.21;33.87;101026.84;5056040;28;20410;-74
2022/09/27 01:49:56;;;;;;;12.70;6.63;;;;;;;38.22;33.94;101027.63;5075246;28;20398;-74
2022/09/27 01:52:30;;;;;;;11.40;6.60;;;;;;;38.12;34.11;101028.66;5075092;28;20394;-74
2022/09/27 01:55:00;;;;;;;14.33;6.47;;;;;;;38.15;34.06;101026.16;5056927;28;20422;-74
2022/09/27 01:57:33;;;;;;;10.00;5.80;;;;;;;38.35;33.76;101019.50;5056485;28;20465;-74
2022/09/27 02:00:05;;;;;;;12.03;6.17;;;;;;;38.57;33.64;101020.66;5056814;28;20438;-74
2022/09/27 02:02:35;;;;;;;10.73;4.83;;;;;;;38.09;34.08;101021.94;5056680;28;20430;-74
2022/09/27 02:05:07;;;;;;;9.50;5.47;;;;;;;37.89;33.77;101003.41;5056630;28;20410;-74
2022/09/27 02:07:41;;;;;;;9.43;5.13;;;;;;;37.96;34.01;101006.50;5056474;28;21057;-75
2022/09/27 02:10:32;;;;;;;9.07;5.50;;;;;;;38.10;33.92;101006.50;5056531;28;20433;-73
2022/09/27 02:13:47;;;;;;;12.07;7.30;;;;;;;37.54;34.37;101007.59;5056508;28;20436;-73
2022/09/27 02:16:28;;;;;;;16.07;6.00;;;;;;;38.03;33.64;100996.06;5047680;28;20450;-72
2022/09/27 02:19:36;;;;;;;12.53;6.87;;;;;;;38.10;33.60;100990.25;5056334;28;20422;-73
2022/09/27 02:22:35;;;;;;;9.30;5.70;;;;;;;37.91;33.95;100993.88;5074416;28;20469;-73
2022/09/27 02:25:17;;;;;;;12.10;6.60;;;;;;;37.87;34.09;100995.56;5056072;28;20477;-73
2022/09/27 02:27:54;;;;;;;10.90;6.60;;;;;;;38.23;33.65;101010.28;5056294;28;20414;-73
2022/09/27 02:30:20;;;;;;;13.97;8.70;;;;;;;37.56;34.61;101003.47;5056366;28;20425;-73
2022/09/27 02:32:46;;;;;;;11.90;5.90;;;;;;;37.81;34.18;101006.81;5056123;28;21036;-73
2022/09/27 02:35:25;;;;;;;13.73;7.53;;;;;;;37.82;34.22;101011.94;5055986;28;20526;-73
2022/09/27 02:37:52;;;;;;;13.83;5.63;;;;;;;37.58;34.77;101011.31;5055979;28;20469;-73
2022/09/27 02:40:18;;;;;;;11.43;7.00;;;;;;;37.51;34.83;101010.91;5056025;28;20426;-73
2022/09/27 02:42:45;;;;;;;11.30;7.50;;;;;;;37.58;34.65;101009.41;5055884;28;20453;-73
2022/09/27 02:45:15;;;;;;;14.93;6.53;;;;;;;38.07;33.88;101013.31;5055724;28;20476;-73
2022/09/27 02:48:10;;;;;;;17.13;7.13;;;;;;;37.78;34.15;101018.22;5074288;28;20398;-73
2022/09/27 02:51:04;;;;;;;15.63;7.63;;;;;;;37.80;34.69;101022.25;5074037;28;20425;-74
2022/09/27 02:54:00;;;;;;;14.70;8.10;;;;;;;38.25;33.75;101024.34;5055945;28;20417;-74
2022/09/27 02:56:40;;;;;;;16.57;7.80;;;;;;;38.21;33.75;101015.19;5055538;28;20449;-74
2022/09/27 02:59:20;;;;;;;14.27;8.03;;;;;;;37.95;34.07;101021.16;5073853;28;20454;-74
2022/09/27 03:01:58;;;;;;;14.53;9.37;;;;;;;37.55;34.76;101022.72;5073830;28;20390;-74
2022/09/27 03:04:37;;;;;;;17.43;6.97;;;;;;;37.71;34.78;101020.53;5073664;28;20945;-74
2022/09/27 03:07:03;;;;;;;20.43;9.60;;;;;;;37.38;35.46;101024.13;5055475;28;20398;-74
2022/09/27 03:09:45;;;;;;;14.53;7.70;;;;;;;37.78;34.90;101023.66;5056047;28;20429;-74
2022/09/27 03:12:11;;;;;;;13.03;8.50;;;;;;;38.00;34.18;101021.06;5055385;28;20848;-74
2022/09/27 03:14:37;;;;;;;14.93;9.93;;;;;;;37.59;34.74;101021.84;5055133;28;20417;-74
2022/09/27 03:17:03;;;;;;;14.47;10.10;;;;;;;37.75;34.51;101024.22;5055243;28;21022;-74
2022/09/27 03:19:29;;;;;;;16.10;10.53;;;;;;;38.00;33.98;101025.66;5055201;28;20441;-74
2022/09/27 03:21:55;;;;;;;11.80;8.37;;;;;;;37.59;34.70;101039.97;5051663;28;20477;-74
2022/09/27 03:24:21;;;;;;;13.97;8.03;;;;;;;37.68;34.53;101050.91;5051883;28;20933;-74
2022/09/27 03:26:47;;;;;;;15.80;7.73;;;;;;;38.06;33.80;101052.34;5051687;28;20479;-74
2022/09/27 03:29:14;;;;;;;13.13;9.57;;;;;;;37.87;34.49;101052.44;5052225;28;20505;-74
2022/09/27 03:31:40;;;;;;;11.90;8.30;;;;;;;38.10;34.13;101050.63;5051755;28;20421;-74
2022/09/27 03:34:06;;;;;;;14.30;9.47;;;;;;;37.76;34.39;101040.19;5051644;28;20445;-74
2022/09/27 03:36:32;;;;;;;18.33;9.00;;;;;;;37.84;34.34;101044.94;5051524;28;20462;-74
2022/09/27 03:38:58;;;;;;;13.73;8.60;;;;;;;38.00;34.31;101050.03;5051556;28;20452;-74
2022/09/27 03:41:24;;;;;;;11.60;8.03;;;;;;;38.15;33.98;101053.22;5051475;28;20407;-74
2022/09/27 03:43:50;;;;;;;13.37;8.17;;;;;;;38.21;33.91;101053.94;5053079;28;20479;-75
2022/09/27 03:46:16;;;;;;;14.03;8.53;;;;;;;38.19;34.01;101064.28;5051916;28;20926;-74
2022/09/27 03:48:42;;;;;;;20.00;9.90;;;;;;;38.11;34.09;101057.66;5034978;28;20430;-74
2022/09/27 03:51:11;;;;;;;15.20;10.00;;;;;;;38.08;34.14;101055.56;5051980;28;20917;-74
2022/09/27 03:53:37;;;;;;;10.73;9.50;;;;;;;38.10;34.30;101058.75;5053095;28;20395;-74
2022/09/27 03:56:03;;;;;;;15.30;8.90;;;;;;;37.64;34.92;101061.53;5051357;28;20472;-74
2022/09/27 03:58:29;;;;;;;13.87;8.63;;;;;;;37.55;34.98;101060.63;5051279;28;20415;-74
2022/09/27 04:00:55;;;;;;;14.40;7.70;;;;;;;37.53;34.77;101063.63;5051369;28;20505;-74
2022/09/27 04:03:21;;;;;;;12.33;8.47;;;;;;;37.33;35.04;101055.84;5052811;28;20543;-74
2022/09/27 04:05:48;;;;;;;12.17;7.50;;;;;;;37.28;35.27;101059.44;5051191;28;20431;-74
2022/09/27 04:08:14;;;;;;;10.53;6.50;;;;;;;37.43;34.71;101058.38;5052689;28;20781;-74
2022/09/27 04:10:41;;;;;;;16.03;7.10;;;;;;;37.40;35.07;101059.00;5034209;28;20443;-75
2022/09/27 04:13:08;;;;;;;22.53;8.80;;;;;;;37.62;34.50;101059.13;5052678;28;20442;-74
2022/09/27 04:15:34;;;;;;;13.33;8.67;;;;;;;37.58;34.62;101057.34;5051118;28;20417;-74
2022/09/27 04:18:01;;;;;;;14.23;7.80;;;;;;;37.95;34.03;101063.69;5052661;28;20403;-74
2022/09/27 04:20:26;;;;;;;11.90;8.53;;;;;;;37.79;34.29;101069.38;5051111;28;20422;-74
2022/09/27 04:22:53;;;;;;;15.80;8.37;;;;;;;37.64;34.20;101070.47;5050830;28;20466;-74
2022/09/27 04:25:19;;;;;;;14.90;7.80;;;;;;;37.32;34.98;101073.16;5052547;28;20442;-74
2022/09/27 04:27:45;;;;;;;11.27;7.60;;;;;;;37.46;34.33;101068.63;5051012;28;20446;-74
2022/09/27 04:30:12;;;;;;;16.47;9.20;;;;;;;37.76;34.07;101069.19;5052417;28;20446;-73
2022/09/27 04:32:43;;;;;;;16.70;9.47;;;;;;;37.73;34.39;101077.88;5051045;28;20514;-74
2022/09/27 04:37:55;;;;;;;13.63;8.37;;;;;;;36.54;36.07;101080.81;5044903;28;20951;-74
2022/09/27 04:40:22;;;;;;;16.23;10.13;;;;;;;37.32;35.22;101078.56;5030782;28;20816;-74
2022/09/27 04:42:49;;;;;;;18.60;9.73;;;;;;;37.37;34.93;101081.22;5030963;28;20560;-74
2022/09/27 04:45:16;;;;;;;16.33;8.93;;;;;;;37.77;34.33;101092.44;5030854;28;20485;-74
2022/09/27 04:47:47;;;;;;;12.90;10.13;;;;;;;37.77;34.27;101095.94;5030840;28;20450;-74
2022/09/27 04:50:14;;;;;;;15.20;10.40;;;;;;;37.88;34.21;101100.09;5030853;28;20419;-75
2022/09/27 04:52:41;;;;;;;12.90;9.10;;;;;;;37.32;34.66;101095.63;5030834;28;20458;-74
2022/09/27 04:55:08;;;;;;;19.40;10.13;;;;;;;37.37;34.59;101089.34;5030884;28;20490;-74
2022/09/27 04:57:34;;;;;;;17.23;11.97;;;;;;;37.83;34.05;101093.97;5030619;28;20503;-74
2022/09/27 05:00:00;;;;;;;21.50;10.90;;;;;;;37.97;33.93;101094.78;5030868;28;20987;-74
2022/09/27 05:02:27;;;;;;;17.97;11.13;;;;;;;37.92;33.87;101087.53;5033768;28;20502;-73
2022/09/27 05:04:58;;;;;;;15.97;11.63;;;;;;;38.17;33.47;101096.28;5041669;28;20451;-73
2022/09/27 05:07:28;;;;;;;15.33;10.73;;;;;;;38.18;33.71;101095.16;5052301;28;20394;-74
2022/09/27 05:09:55;;;;;;;18.50;10.70;;;;;;;37.97;33.94;101094.78;5050488;28;20448;-74
2022/09/27 05:12:22;;;;;;;17.03;9.87;;;;;;;38.07;33.93;101116.25;5041107;28;20403;-74
2022/09/27 05:14:48;;;;;;;17.73;12.50;;;;;;;38.03;33.81;101111.72;5030553;28;20447;-73
2022/09/27 05:17:14;;;;;;;22.27;11.60;;;;;;;38.10;34.06;101117.56;5030681;28;20463;-73
2022/09/27 05:19:40;;;;;;;19.40;11.40;;;;;;;38.27;33.95;101125.91;5030641;28;20415;-73
2022/09/27 05:22:06;;;;;;;18.87;12.43;;;;;;;38.35;33.53;101127.91;5032052;28;20467;-73
2022/09/27 05:24:32;;;;;;;23.70;11.10;;;;;;;38.44;33.25;101130.72;5034080;28;20469;-73
2022/09/27 05:27:00;;;;;;;24.67;11.90;;;;;;;38.43;33.57;101139.97;5033819;28;20412;-73
2022/09/27 05:29:26;;;;;;;17.10;11.57;;;;;;;38.48;33.39;101139.81;5034079;28;20502;-73
2022/09/27 05:31:53;;;;;;;25.90;14.93;;;;;;;38.55;33.38;101151.09;5041908;28;20411;-72
2022/09/27 05:34:19;;;;;;;21.17;15.57;;;;;;;38.46;33.65;101154.78;5043286;28;21039;-73
2022/09/27 05:36:49;;;;;;;22.80;12.70;;;;;;;38.41;33.22;101158.41;5042330;28;21050;-73
2022/09/27 05:39:16;;;;;;;18.50;9.77;;;;;;;38.23;33.33;101162.00;5035387;28;20400;-73
2022/09/27 05:41:43;;;;;;;19.73;12.80;;;;;;;37.89;33.81;101163.97;5033876;28;20470;-72
2022/09/27 05:44:09;;;;;;;18.60;12.40;;;;;;;38.30;33.26;101160.50;5050860;28;20477;-73
2022/09/27 05:46:35;;;;;;;18.23;11.80;;;;;;;38.32;33.26;101161.03;5053337;28;20484;-72
2022/09/27 05:49:01;;;;;;;21.10;13.30;;;;;;;38.50;33.25;101170.16;5053655;28;20983;-74
2022/09/27 05:51:27;;;;;;;17.70;12.93;;;;;;;38.56;33.19;101171.66;5053239;28;20454;-74
2022/09/27 05:53:53;;;;;;;16.37;12.63;;;;;;;38.60;33.05;101172.63;5043683;28;20438;-75
2022/09/27 05:56:19;;;;;;;19.50;13.10;;;;;;;38.58;32.89;101174.84;5050780;28;20473;-72
2022/09/27 05:58:45;;;;;;;24.00;14.13;;;;;;;38.58;32.77;101176.78;5044774;28;20426;-73
2022/09/27 06:01:11;;;;;;;21.53;14.87;;;;;;;38.63;32.87;101180.19;5036524;28;20455;-74
2022/09/27 06:03:39;;;;;;;17.87;13.07;;;;;;;38.60;32.89;101182.69;5052205;28;20952;-73
2022/09/27 06:06:06;;;;;;;21.97;15.10;;;;;;;38.72;32.84;101176.78;5052886;28;21003;-72
2022/09/27 06:08:36;;;;;;;16.30;11.50;;;;;;;38.62;32.79;101172.34;5043603;28;20422;-72
2022/09/27 06:11:05;;;;;;;21.20;15.23;;;;;;;38.67;32.79;101175.75;5052426;28;20422;-74
2022/09/27 06:13:33;;;;;;;16.63;12.63;;;;;;;38.63;32.68;101179.38;5041087;28;20426;-72
2022/09/27 06:15:59;;;;;;;14.53;12.40;;;;;;;38.65;32.49;101185.28;5051730;28;20515;-72
2022/09/27 06:18:25;;;;;;;21.47;14.70;;;;;;;38.49;32.69;101181.28;5053036;28;20415;-72
2022/09/27 06:20:51;;;;;;;17.23;12.97;;;;;;;38.53;32.97;101191.22;5053586;28;20422;-73
2022/09/27 06:23:21;;;;;;;18.87;13.17;;;;;;;38.63;32.70;101190.22;5071567;28;20458;-72
2022/09/27 06:25:48;;;;;;;19.20;14.43;;;;;;;38.59;33.09;101190.00;5056048;28;20463;-73
2022/09/27 06:28:15;;;;;;;25.53;16.90;;;;;;;38.51;32.97;101185.31;5053385;28;20422;-73
2022/09/27 06:30:47;;;;;;;22.77;13.30;;;;;;;38.73;33.21;101189.22;5055951;28;20476;-74
2022/09/27 06:33:15;;;;;;;23.30;13.07;;;;;;;38.89;32.48;101201.34;5070732;28;20784;-73
2022/09/27 06:35:44;;;;;;;17.30;13.33;;;;;;;38.93;32.74;101213.19;5055408;28;20518;-73
2022/09/27 06:38:14;;;;;;;20.30;14.47;;;;;;;38.97;32.47;101214.19;5073532;28;20413;-73
2022/09/27 06:40:44;;;;;;;22.40;11.90;;;;;;;39.00;32.34;101229.06;5055497;28;20425;-72
2022/09/27 06:43:13;;;;;;;22.77;14.20;;;;;;;39.07;32.03;101227.53;5054416;28;20936;-72
2022/09/27 06:45:39;;;;;;;23.27;14.50;;;;;;;39.07;32.20;101230.25;5051629;28;20434;-73
2022/09/27 06:48:07;;;;;;;20.80;13.13;;;;;;;39.12;31.99;101227.41;5054371;28;20971;-74
2022/09/27 06:50:35;;;;;;;23.77;12.77;;;;;;;39.06;32.13;101234.06;5050235;28;20456;-73
2022/09/27 06:53:03;;;;;;;23.63;14.03;;;;;;;39.03;32.29;101242.81;5052613;28;20459;-74
2022/09/27 06:55:29;;;;;;;20.00;12.93;;;;;;;38.91;32.24;101248.75;5052251;28;20792;-73
2022/09/27 07:00:41;;;;;;;22.43;13.70;;;;;;;39.07;32.36;101262.00;5071950;28;20491;-74
2022/09/27 07:03:10;;;;;;;28.50;15.10;;;;;;;39.17;32.15;101259.91;5052644;28;20422;-74
2022/09/27 07:05:43;;;;;;;21.40;14.63;;;;;;;39.18;32.15;101263.41;5052028;28;21031;-72
2022/09/27 07:08:13;;;;;;;23.87;14.80;;;;;;;39.09;32.14;101274.13;5027907;28;20520;-74
2022/09/27 07:10:40;;;;;;;25.40;15.40;;;;;;;39.26;31.87;101272.72;5051854;28;20494;-74
2022/09/27 07:13:08;;;;;;;25.20;14.77;;;;;;;39.28;31.30;101278.66;5070153;28;20410;-75
2022/09/27 07:15:37;;;;;;;22.33;16.00;;;;;;;39.36;31.99;101280.66;5052085;28;20414;-71
2022/09/27 07:18:05;;;;;;;25.53;15.83;;;;;;;39.40;31.77;101282.44;5049844;28;20448;-72
2022/09/27 07:20:32;;;;;;;20.10;15.33;;;;;;;39.24;32.01;101289.31;5053401;28;20478;-74
2022/09/27 07:22:58;;;;;;;20.30;15.23;;;;;;;39.22;31.99;101295.03;5050136;28;20463;-73
2022/09/27 07:25:25;;;;;;;21.53;15.30;;;;;;;39.33;32.16;101297.53;5050292;28;20450;-75
2022/09/27 07:27:51;;;;;;;27.57;18.40;;;;;;;39.43;32.31;101300.03;5051775;28;20399;-74
2022/09/27 07:30:19;;;;;;;26.40;16.03;;;;;;;39.40;31.40;101304.16;5050746;28;20454;-71
2022/09/27 07:32:45;;;;;;;23.50;19.37;;;;;;;39.18;32.00;101304.91;5053098;28;20439;-74
2022/09/27 07:35:15;;;;;;;19.67;14.20;;;;;;;39.12;31.97;101302.59;5053182;28;20490;-74
2022/09/27 07:37:42;;;;;;;21.13;15.57;;;;;;;39.01;32.04;101304.69;5051611;28;20465;-73
2022/09/27 07:40:09;;;;;;;20.97;15.07;;;;;;;38.90;32.72;101304.09;5051603;28;20446;-73
2022/09/27 07:42:40;;;;;;;21.40;15.20;;;;;;;39.02;32.28;101297.38;5052037;28;20437;-73
2022/09/27 07:45:08;;;;;;;20.60;14.63;;;;;;;39.17;32.09;101297.09;5048892;28;20422;-74
2022/09/27 07:47:36;;;;;;;27.50;16.20;;;;;;;39.16;32.10;101290.84;5050665;28;20517;-73
2022/09/27 07:50:04;;;;;;;21.23;15.73;;;;;;;39.14;31.96;101290.31;5049565;28;20426;-74
2022/09/27 07:52:30;;;;;;;27.87;15.07;;;;;;;38.68;32.83;101285.81;5049712;28;20430;-73
2022/09/27 07:54:56;;;;;;;26.43;16.90;;;;;;;38.99;32.56;101284.44;5051059;28;20406;-74
2022/09/27 07:57:22;;;;;;;27.30;18.37;;;;;;;38.85;32.92;101287.13;5049808;28;20466;-74
2022/09/27 07:59:48;;;;;;;23.27;15.00;;;;;;;38.66;33.03;101284.50;5052880;28;20387;-74
2022/09/27 08:02:16;;;;;;;23.30;16.63;;;;;;;38.25;33.50;101289.84;5051285;28;20429;-74
2022/09/27 08:04:48;;;;;;;31.57;20.63;;;;;;;38.08;34.01;101287.72;5051068;28;20426;-74
2022/09/27 08:07:14;;;;;;;37.93;22.63;;;;;;;38.34;33.46;101298.94;5051303;28;20418;-73
2022/09/27 08:09:41;;;;;;;27.73;20.73;;;;;;;38.34;33.94;101297.00;5052871;28;20450;-73
2022/09/27 08:12:07;;;;;;;32.03;17.20;;;;;;;38.41;33.53;101299.34;5051142;28;20430;-76
2022/09/27 08:14:34;;;;;;;21.50;15.27;;;;;;;38.57;33.30;101303.38;5051439;28;20484;-73
2022/09/27 08:17:00;;;;;;;28.53;17.40;;;;;;;38.60;32.98;101293.81;5050884;28;21018;-73
2022/09/27 08:19:26;;;;;;;25.40;16.10;;;;;;;38.42;32.98;101303.66;5052707;28;20896;-74
2022/09/27 08:21:55;;;;;;;19.77;13.00;;;;;;;38.84;32.74;101304.50;5054415;28;20469;-73
2022/09/27 08:24:21;;;;;;;22.60;13.93;;;;;;;38.71;32.84;101303.38;5054454;28;20417;-78
2022/09/27 08:26:47;;;;;;;24.63;14.83;;;;;;;39.16;32.86;101314.44;5054348;28;20406;-73
2022/09/27 08:29:13;;;;;;;22.50;14.07;;;;;;;39.13;32.62;101315.03;5054306;28;20452;-74
2022/09/27 08:31:39;;;;;;;19.27;13.10;;;;;;;39.29;31.79;101321.78;5054388;28;20414;-72
2022/09/27 08:34:05;;;;;;;24.80;15.03;;;;;;;39.09;31.98;101325.69;5054304;28;20406;-72
2022/09/27 08:36:34;;;;;;;36.60;14.50;;;;;;;39.32;31.93;101323.06;5054461;28;20464;-73
2022/09/27 08:39:01;;;;;;;24.80;15.30;;;;;;;39.14;32.06;101322.88;5072671;28;20440;-72
2022/09/27 08:41:45;;;;;;;21.77;14.20;;;;;;;38.35;33.00;101322.22;5054208;28;20422;-72
2022/09/27 08:44:47;;;;;;;19.63;12.40;;;;;;;38.48;33.12;101318.72;5054530;28;20420;-74
2022/09/27 08:47:17;;;;;;;20.77;10.63;;;;;;;38.97;32.50;101322.69;5054136;28;20417;-74
2022/09/27 08:50:05;;;;;;;14.70;11.40;;;;;;;39.05;32.13;101316.56;5054016;28;20919;-73
2022/09/27 08:52:41;;;;;;;19.90;12.90;;;;;;;39.07;32.37;101314.34;5072371;28;20408;-73
2022/09/27 08:55:23;;;;;;;16.10;10.00;;;;;;;39.01;31.84;101323.69;5054451;28;20437;-72
2022/09/27 08:57:55;;;;;;;16.40;10.03;;;;;;;39.56;31.00;101318.19;5057718;28;20837;-72
2022/09/27 09:00:22;;;;;;;24.83;14.80;;;;;;;39.57;30.97;101319.00;5057898;28;20421;-72
2022/09/27 09:02:48;;;;;;;24.87;18.53;;;;;;;38.94;32.02;101324.09;5057814;28;20986;-72
2022/09/27 09:05:26;;;;;;;13.43;11.03;;;;;;;39.57;30.98;101324.41;5057794;28;20985;-73
2022/09/27 09:08:01;;;;;;;14.77;10.97;;;;;;;39.43;31.72;101324.47;5057951;28;20412;-73
2022/09/27 09:14:00;;;;;;;13.87;8.63;;;;;;;39.79;31.01;101335.34;5071936;28;20505;-73
2022/09/27 09:16:45;;;;;;;17.90;9.53;;;;;;;39.95;30.84;101335.75;5057497;28;21064;-73
2022/09/27 09:19:34;;;;;;;15.23;10.20;;;;;;;39.51;31.58;101337.31;5057595;28;20413;-73
2022/09/27 09:22:39;;;;;;;18.30;12.40;;;;;;;39.38;32.09;101343.56;5056051;28;20462;-72
2022/09/27 09:25:42;;;;;;;16.57;11.30;;;;;;;39.77;31.29;101345.69;5013854;28;20429;-73
2022/09/27 09:28:22;;;;;;;13.17;8.57;;;;;;;39.98;30.96;101346.03;5075642;28;20810;-73
2022/09/27 09:31:20;;;;;;;11.57;7.53;;;;;;;39.54;31.06;101347.56;5057350;28;20459;-73
2022/09/27 09:33:54;;;;;;;11.83;7.47;;;;;;;39.93;31.06;101359.72;5075637;28;20485;-73
2022/09/27 09:36:40;;;;;;;15.03;7.90;;;;;;;39.82;30.89;101355.63;5040578;28;20549;-73
2022/09/27 09:39:21;;;;;;;14.87;9.30;;;;;;;39.59;31.07;101355.56;5057157;28;20417;-74
2022/09/27 09:42:03;;;;;;;14.63;9.90;;;;;;;39.48;31.62;101357.72;5057229;28;20440;-74
2022/09/27 09:44:31;;;;;;;13.17;9.37;;;;;;;38.90;32.20;101354.84;5057125;28;20422;-74
2022/09/27 09:47:01;;;;;;;14.37;9.23;;;;;;;39.37;32.10;101358.25;5056792;28;20414;-74
2022/09/27 09:49:38;;;;;;;14.23;8.00;;;;;;;39.75;31.24;101350.63;5056950;28;20935;-77
2022/09/27 09:52:19;;;;;;;12.30;7.80;;;;;;;39.47;31.72;101355.31;5057121;28;20426;-74
2022/09/27 09:54:54;;;;;;;11.80;8.40;;;;;;;39.98;30.79;101351.47;5056685;28;20536;-73
2022/09/27 09:58:02;;;;;;;13.43;8.27;;;;;;;39.83;31.55;101349.09;5056829;28;20595;-72
2022/09/27 10:00:28;;;;;;;19.67;8.10;;;;;;;40.20;30.95;101334.34;5030622;28;20824;-72
2022/09/27 10:02:57;;;;;;;16.73;10.63;;;;;;;40.24;30.67;101347.00;5056750;28;20425;-72
2022/09/27 10:05:26;;;;;;;28.00;11.83;;;;;;;39.85;31.25;101336.03;5056640;28;20460;-72
2022/09/27 10:07:56;;;;;;;17.30;12.13;;;;;;;40.05;30.85;101335.56;5039453;28;20452;-71
2022/09/27 10:10:23;;;;;;;12.67;9.50;;;;;;;39.93;31.03;101322.50;5040664;28;20453;-72
2022/09/27 10:12:49;;;;;;;12.57;9.27;;;;;;;39.44;31.64;101331.50;5039983;28;20418;-72
2022/09/27 10:15:28;;;;;;;16.63;8.47;;;;;;;38.55;33.06;101334.59;5040061;28;20961;-72
2022/09/27 10:17:58;;;;;;;18.60;9.60;;;;;;;39.49;31.96;101331.38;5056416;28;20459;-72
2022/09/27 10:20:29;;;;;;;18.00;9.43;;;;;;;38.87;32.72;101322.91;5039925;28;20422;-72
2022/09/27 10:23:19;;;;;;;14.93;8.63;;;;;;;39.61;32.02;101315.38;5057261;28;20619;-72
2022/09/27 10:25:57;;;;;;;12.37;6.60;;;;;;;39.55;31.29;101302.22;5074244;28;20473;-71
2022/09/27 10:28:31;;;;;;;11.87;6.33;;;;;;;39.41;31.53;101294.09;5039939;28;20523;-72
2022/09/27 10:31:02;;;;;;;14.63;7.03;;;;;;;40.22;30.53;101291.38;5056665;28;20428;-72
2022/09/27 10:33:30;;;;;;;10.80;6.10;;;;;;;40.49;30.26;101296.63;5055978;28;20546;-70
2022/09/27 10:35:57;;;;;;;14.50;5.90;;;;;;;40.90;29.93;101289.25;5039831;28;20426;-70
2022/09/27 10:38:35;;;;;;;13.73;8.73;;;;;;;41.03;29.88;101285.63;5056021;28;20847;-70
2022/09/27 10:41:21;;;;;;;11.60;7.43;;;;;;;41.04;30.16;101290.75;5056373;28;20445;-73
2022/09/27 10:43:47;;;;;;;21.77;9.33;;;;;;;41.17;29.68;101283.56;5056037;28;20421;-72
2022/09/27 10:46:22;;;;;;;14.07;8.83;;;;;;;41.21;29.75;101279.06;5056321;28;20421;-72
2022/09/27 10:49:08;;;;;;;12.40;7.60;;;;;;;41.39;29.29;101269.03;5055912;28;20983;-72
2022/09/27 10:51:35;;;;;;;14.70;8.73;;;;;;;41.40;29.33;101270.63;5055779;28;20414;-72
2022/09/27 10:54:02;;;;;;;17.20;8.10;;;;;;;41.05;29.42;101262.41;5055879;28;20459;-72
2022/09/27 10:56:31;;;;;;;16.97;9.33;;;;;;;41.21;29.10;101261.94;5056141;28;20565;-71
2022/09/27 10:59:02;;;;;;;18.30;9.50;;;;;;;41.30;29.87;101260.81;5055535;28;20430;-71
2022/09/27 11:01:44;;;;;;;17.73;9.60;;;;;;;41.67;29.53;101252.31;5055609;28;20799;-71
2022/09/27 11:04:33;;;;;;;20.13;10.40;;;;;;;41.72;29.47;101246.72;5056740;28;20401;-72
2022/09/27 11:07:21;;;;;;;32.03;10.93;;;;;;;41.32;28.81;101242.28;5055508;28;20409;-73
2022/09/27 11:09:53;;;;;;;10.67;5.73;;;;;;;40.81;29.08;101229.38;5073578;28;20469;-71
2022/09/27 11:12:21;;;;;;;16.30;7.63;;;;;;;41.44;29.53;101233.47;5056243;28;20393;-71
2022/09/27 11:15:18;;;;;;;16.33;8.50;;;;;;;41.73;29.49;101227.31;5055997;28;20551;-71
2022/09/27 11:17:58;;;;;;;19.80;8.37;;;;;;;41.56;29.62;101225.44;5055236;28;20487;-72
2022/09/27 11:20:51;;;;;;;19.57;8.10;;;;;;;41.74;29.45;101217.22;5055216;28;20588;-72
2022/09/27 11:23:17;;;;;;;14.40;7.83;;;;;;;41.45;29.92;101213.28;5054959;28;20488;-73
2022/09/27 11:26:07;;;;;;;15.80;9.60;;;;;;;41.17;30.18;101217.44;5055144;28;20425;-71
2022/09/27 11:29:06;;;;;;;12.97;7.50;;;;;;;41.24;30.44;101215.03;5055051;28;20410;-73
2022/09/27 11:31:46;;;;;;;12.37;6.50;;;;;;;41.41;29.97;101211.53;5055088;28;20422;-73
2022/09/27 11:34:30;;;;;;;17.60;6.90;;;;;;;41.80;29.84;101197.69;5073326;28;20398;-71
2022/09/27 11:37:12;;;;;;;14.03;8.30;;;;;;;41.78;29.96;101199.13;5054971;28;20987;-71
2022/09/27 11:39:44;;;;;;;14.57;8.23;;;;;;;41.53;29.97;101198.84;5054924;28;20474;-71
2022/09/27 11:42:38;;;;;;;14.73;6.77;;;;;;;41.76;29.85;101195.94;5055073;28;20963;-71
2022/09/27 11:45:25;;;;;;;11.23;5.80;;;;;;;41.83;29.62;101188.88;5054869;28;20402;-71
2022/09/27 11:48:02;;;;;;;10.90;5.67;;;;;;;41.83;29.94;101186.13;5054724;28;20442;-72